Time;durP1;ratioP1;P1;durP2;ratioP2;P2;SDS_P1;SDS_P2;PMS_P1;PMS_P2;Temp;Humidity;BMP_temperature;BMP_pressure;BME280_temperature;BME280_humidity;BME280_pressure;Samples;Min_cycle;Max_cycle;Signal;HPM_P1;HPM_P2
2023/12/30 00:02:04;;;;;;;2.00;1.87;;;13.70;57.40;;;;;;4997314;28;20440;-59
2023/12/30 00:04:30;;;;;;;2.23;2.03;;;13.40;57.90;;;;;;5006974;28;20528;-60
2023/12/30 00:06:56;;;;;;;2.53;2.10;;;13.30;58.40;;;;;;4999200;28;20686;-57
2023/12/30 00:09:21;;;;;;;1.43;1.33;;;13.20;58.60;;;;;;4997603;28;20476;-58
2023/12/30 00:11:47;;;;;;;1.93;1.70;;;13.30;58.80;;;;;;4998504;28;20183;-58
2023/12/30 00:14:12;;;;;;;1.50;1.40;;;13.50;58.60;;;;;;5004679;28;20181;-61
2023/12/30 00:16:39;;;;;;;1.90;1.70;;;13.20;58.60;;;;;;5003614;28;20680;-57
2023/12/30 00:19:05;;;;;;;2.30;2.10;;;13.30;58.80;;;;;;5007296;28;20256;-60
2023/12/30 00:21:31;;;;;;;2.27;1.70;;;13.40;58.40;;;;;;4998667;28;20857;-59
2023/12/30 00:23:56;;;;;;;2.47;1.97;;;13.50;58.10;;;;;;4999268;28;20434;-58
2023/12/30 00:26:24;;;;;;;5.30;1.93;;;13.50;57.90;;;;;;5001392;28;20253;-60
2023/12/30 00:28:50;;;;;;;2.00;1.87;;;13.60;58.00;;;;;;4996527;28;20220;-56
2023/12/30 00:31:23;;;;;;;2.47;1.50;;;13.60;58.10;;;;;;5002766;28;21128;-61
2023/12/30 00:33:49;;;;;;;4.70;2.20;;;13.60;58.00;;;;;;5002569;28;20981;-59
2023/12/30 00:36:14;;;;;;;3.50;1.97;;;13.60;57.90;;;;;;5002951;28;20456;-59
2023/12/30 00:38:40;;;;;;;2.50;2.00;;;13.60;57.90;;;;;;5004419;28;20540;-60
2023/12/30 00:41:06;;;;;;;2.03;1.60;;;13.30;58.10;;;;;;4999549;28;20195;-59
2023/12/30 00:43:32;;;;;;;3.63;1.97;;;13.40;58.70;;;;;;5000675;28;20190;-60
2023/12/30 00:45:57;;;;;;;2.33;2.10;;;13.50;58.60;;;;;;5000151;28;20210;-58
2023/12/30 00:48:23;;;;;;;2.47;2.00;;;13.50;58.40;;;;;;5003280;28;20218;-59
2023/12/30 00:50:48;;;;;;;2.27;2.07;;;13.50;58.50;;;;;;5001069;28;20205;-59
2023/12/30 00:53:14;;;;;;;2.00;1.70;;;13.70;58.30;;;;;;4998586;28;20186;-60
2023/12/30 00:55:40;;;;;;;3.20;1.50;;;13.70;58.10;;;;;;4998277;28;20336;-59
2023/12/30 00:58:05;;;;;;;2.10;1.90;;;13.60;57.90;;;;;;5006011;28;20193;-58
2023/12/30 01:00:31;;;;;;;2.30;1.80;;;13.60;58.10;;;;;;5002889;28;20186;-59
2023/12/30 01:02:56;;;;;;;4.93;2.00;;;13.50;58.80;;;;;;5004762;28;20186;-60
2023/12/30 01:05:22;;;;;;;2.73;1.80;;;13.50;59.30;;;;;;5002654;28;20209;-61
2023/12/30 01:07:47;;;;;;;2.37;1.70;;;13.70;59.20;;;;;;5001909;28;20225;-58
2023/12/30 01:10:17;;;;;;;2.10;2.00;;;13.90;59.00;;;;;;5003269;28;20273;-59
2023/12/30 01:12:42;;;;;;;2.20;1.93;;;13.70;58.90;;;;;;5005044;28;20194;-61
2023/12/30 01:15:08;;;;;;;5.00;1.70;;;13.70;59.30;;;;;;5003521;28;20444;-61
2023/12/30 01:17:34;;;;;;;1.70;1.60;;;13.80;59.30;;;;;;5003371;28;20194;-61
2023/12/30 01:19:59;;;;;;;2.20;2.00;;;13.80;59.30;;;;;;5002774;28;20857;-60
2023/12/30 01:22:25;;;;;;;3.73;1.90;;;13.80;59.10;;;;;;5007771;28;20212;-60
2023/12/30 01:24:50;;;;;;;1.93;1.63;;;13.60;59.20;;;;;;5003130;28;20186;-60
2023/12/30 01:27:16;;;;;;;1.60;1.50;;;13.60;59.70;;;;;;5007044;28;20298;-58
2023/12/30 01:29:41;;;;;;;2.40;2.10;;;13.80;59.90;;;;;;5003444;28;20212;-61
2023/12/30 01:32:07;;;;;;;1.90;1.80;;;13.80;59.80;;;;;;5008145;28;20186;-61
2023/12/30 01:34:33;;;;;;;1.83;1.73;;;13.80;59.70;;;;;;5008981;28;20196;-62
2023/12/30 01:36:58;;;;;;;2.93;2.00;;;13.60;59.90;;;;;;5006686;28;20452;-61
2023/12/30 01:39:24;;;;;;;2.60;2.13;;;13.60;60.20;;;;;;5007660;28;20198;-60
2023/12/30 01:41:51;;;;;;;2.10;1.90;;;13.70;61.00;;;;;;5005925;28;20201;-59
2023/12/30 01:44:17;;;;;;;1.57;1.47;;;13.60;60.80;;;;;;5008334;28;20452;-60
2023/12/30 01:46:43;;;;;;;2.30;2.03;;;13.60;61.30;;;;;;5005892;28;20484;-62
2023/12/30 01:49:09;;;;;;;2.20;1.97;;;13.60;61.40;;;;;;5008026;28;20185;-61
2023/12/30 01:51:35;;;;;;;1.90;1.80;;;13.80;61.40;;;;;;5007950;28;20448;-60
2023/12/30 01:54:03;;;;;;;2.00;1.90;;;13.60;61.50;;;;;;5010132;28;20460;-60
2023/12/30 01:56:28;;;;;;;1.90;1.80;;;13.50;62.20;;;;;;5005496;28;20202;-61
2023/12/30 01:58:54;;;;;;;3.93;2.30;;;13.40;62.90;;;;;;5005392;28;20439;-61
2023/12/30 02:01:27;;;;;;;2.17;1.97;;;13.30;63.10;;;;;;5007459;28;20185;-61
2023/12/30 02:03:52;;;;;;;2.27;1.90;;;13.40;63.70;;;;;;5005809;28;20466;-61
2023/12/30 02:06:18;;;;;;;2.33;1.53;;;13.40;63.70;;;;;;5000945;28;20506;-59
2023/12/30 02:08:45;;;;;;;1.80;1.70;;;13.40;63.80;;;;;;5000246;28;20226;-61
2023/12/30 02:11:12;;;;;;;2.37;1.97;;;13.30;63.80;;;;;;5005514;28;20182;-61
2023/12/30 02:13:41;;;;;;;1.90;1.80;;;13.40;63.90;;;;;;5006455;28;20514;-61
2023/12/30 02:16:07;;;;;;;2.00;1.80;;;13.40;63.60;;;;;;5003912;28;20468;-60
2023/12/30 02:18:32;;;;;;;2.30;1.90;;;13.60;63.50;;;;;;5002438;28;21930;-63
2023/12/30 02:20:58;;;;;;;3.20;1.93;;;13.70;63.00;;;;;;5002241;28;20186;-60
2023/12/30 02:23:23;;;;;;;6.00;2.23;;;13.80;63.50;;;;;;5005703;28;20190;-61
2023/12/30 02:25:50;;;;;;;2.00;1.90;;;13.80;63.10;;;;;;4997688;28;20206;-62
2023/12/30 02:28:16;;;;;;;2.30;2.07;;;14.00;63.00;;;;;;5005695;28;20210;-62
2023/12/30 02:30:42;;;;;;;2.77;2.57;;;13.90;63.00;;;;;;5001345;28;20456;-61
2023/12/30 02:33:07;;;;;;;2.10;1.90;;;13.90;63.10;;;;;;5006918;28;20510;-61
2023/12/30 02:35:33;;;;;;;2.27;2.07;;;14.00;62.80;;;;;;4999550;28;20214;-62
2023/12/30 02:37:58;;;;;;;3.03;2.73;;;14.00;63.10;;;;;;5007208;28;20186;-61
2023/12/30 02:40:24;;;;;;;2.43;2.20;;;13.80;62.90;;;;;;5006637;28;20220;-61
2023/12/30 02:42:50;;;;;;;5.83;2.17;;;13.70;63.10;;;;;;5003915;28;20193;-61
2023/12/30 02:45:15;;;;;;;3.73;2.10;;;13.80;63.50;;;;;;5001501;28;20194;-62
2023/12/30 02:47:41;;;;;;;2.50;2.30;;;13.60;63.50;;;;;;5005898;28;20251;-61
2023/12/30 02:50:07;;;;;;;2.50;2.10;;;13.60;64.10;;;;;;5004425;28;20197;-60
2023/12/30 02:52:32;;;;;;;3.10;2.30;;;13.30;64.00;;;;;;5004777;28;20720;-62
2023/12/30 02:54:59;;;;;;;1.80;1.70;;;13.20;65.10;;;;;;5003322;28;20436;-59
2023/12/30 02:57:25;;;;;;;1.97;1.87;;;13.20;65.80;;;;;;4998601;28;20328;-62
2023/12/30 02:59:51;;;;;;;1.93;1.83;;;13.10;65.60;;;;;;5005344;28;20979;-60
2023/12/30 03:02:17;;;;;;;2.60;2.40;;;13.10;65.60;;;;;;5004953;28;20448;-58
2023/12/30 03:04:42;;;;;;;2.83;1.97;;;12.90;66.20;;;;;;5004618;28;20214;-61
2023/12/30 03:07:08;;;;;;;2.57;2.37;;;12.90;65.40;;;;;;5000791;28;20230;-61
2023/12/30 03:09:34;;;;;;;5.20;1.80;;;12.90;66.40;;;;;;5005578;28;20182;-60
2023/12/30 03:12:02;;;;;;;3.80;2.13;;;13.10;66.90;;;;;;4997836;28;20195;-60
2023/12/30 03:14:33;;;;;;;2.20;2.00;;;13.10;66.10;;;;;;5002586;28;20437;-62
2023/12/30 03:16:59;;;;;;;3.33;2.37;;;13.10;66.40;;;;;;5000664;28;20853;-61
2023/12/30 03:19:24;;;;;;;2.10;1.90;;;13.10;65.90;;;;;;5005079;28;20452;-60
2023/12/30 03:21:50;;;;;;;2.10;1.70;;;12.90;65.80;;;;;;5005071;28;20328;-61
2023/12/30 03:24:15;;;;;;;2.40;2.00;;;12.80;66.30;;;;;;5003869;28;20186;-61
2023/12/30 03:26:41;;;;;;;2.10;1.90;;;12.60;66.60;;;;;;5001524;28;20221;-60
2023/12/30 03:29:07;;;;;;;1.90;1.80;;;12.80;67.10;;;;;;4997346;28;20544;-60
2023/12/30 03:31:32;;;;;;;2.70;1.90;;;12.90;66.70;;;;;;4996816;28;20313;-60
2023/12/30 03:33:58;;;;;;;4.00;2.40;;;13.00;66.20;;;;;;5006951;28;20201;-61
2023/12/30 03:36:23;;;;;;;2.70;2.20;;;12.90;66.40;;;;;;5000686;28;20209;-61
2023/12/30 03:38:51;;;;;;;2.40;1.97;;;12.70;67.70;;;;;;4995676;28;20186;-61
2023/12/30 03:41:17;;;;;;;1.97;1.80;;;12.70;67.20;;;;;;5002284;28;20178;-60
2023/12/30 03:43:43;;;;;;;4.33;2.20;;;12.80;67.80;;;;;;4998327;28;20448;-60
2023/12/30 03:46:09;;;;;;;1.77;1.67;;;13.00;67.10;;;;;;5004517;28;21043;-60
2023/12/30 03:48:35;;;;;;;1.80;1.70;;;13.00;66.70;;;;;;4998108;28;20293;-59
2023/12/30 03:51:00;;;;;;;2.13;1.70;;;13.20;66.20;;;;;;5002235;28;20194;-61
2023/12/30 03:53:26;;;;;;;1.73;1.63;;;13.00;65.30;;;;;;5001498;28;20432;-60
2023/12/30 03:55:52;;;;;;;1.70;1.60;;;12.80;66.50;;;;;;5000231;28;20293;-61
2023/12/30 03:58:17;;;;;;;3.37;2.10;;;12.80;67.00;;;;;;5004384;28;20221;-61
2023/12/30 04:00:43;;;;;;;2.40;2.20;;;12.60;67.60;;;;;;5005671;28;20197;-60
2023/12/30 04:03:08;;;;;;;1.97;1.87;;;12.80;67.90;;;;;;5004569;28;20198;-61
2023/12/30 04:05:34;;;;;;;1.87;1.70;;;12.60;68.00;;;;;;4998109;28;20217;-61
2023/12/30 04:08:00;;;;;;;2.80;1.83;;;12.90;68.10;;;;;;5000674;28;20218;-61
2023/12/30 04:10:25;;;;;;;1.73;1.63;;;13.10;67.80;;;;;;5005747;28;20444;-61
2023/12/30 04:12:51;;;;;;;4.00;2.00;;;13.00;67.80;;;;;;5004259;28;20262;-61
2023/12/30 04:15:17;;;;;;;2.20;1.97;;;13.20;67.60;;;;;;5000757;28;20218;-60
2023/12/30 04:17:43;;;;;;;4.47;2.37;;;13.40;66.60;;;;;;5005050;28;20198;-60
2023/12/30 04:20:09;;;;;;;4.70;2.20;;;13.60;66.00;;;;;;4999377;28;20751;-61
2023/12/30 04:22:34;;;;;;;2.63;1.60;;;13.60;65.80;;;;;;5003685;28;20491;-60
2023/12/30 04:25:01;;;;;;;3.00;2.80;;;13.50;66.00;;;;;;4999536;28;20437;-60
2023/12/30 04:27:27;;;;;;;1.63;1.53;;;13.50;66.10;;;;;;5005372;28;20218;-62
2023/12/30 04:29:52;;;;;;;2.77;2.53;;;13.50;66.50;;;;;;5001040;28;20473;-61
2023/12/30 04:32:20;;;;;;;2.80;2.20;;;13.40;66.90;;;;;;4995651;28;20953;-61
2023/12/30 04:34:46;;;;;;;1.90;1.70;;;13.40;66.80;;;;;;4998609;28;20190;-61
2023/12/30 04:37:12;;;;;;;1.90;1.67;;;13.30;66.90;;;;;;5002504;28;20495;-60
2023/12/30 04:39:38;;;;;;;3.97;2.50;;;13.20;67.30;;;;;;4999756;28;20190;-60
2023/12/30 04:42:04;;;;;;;2.90;1.73;;;13.20;67.40;;;;;;4997564;28;20444;-61
2023/12/30 04:44:29;;;;;;;6.87;1.97;;;13.10;68.00;;;;;;4998994;28;20192;-61
2023/12/30 04:46:55;;;;;;;2.20;1.60;;;13.00;67.60;;;;;;5002800;28;20257;-60
2023/12/30 04:49:20;;;;;;;2.80;1.47;;;12.80;68.20;;;;;;4999395;28;20203;-59
2023/12/30 04:51:46;;;;;;;1.50;1.40;;;12.90;68.50;;;;;;5002226;28;20220;-58
2023/12/30 04:54:11;;;;;;;2.90;1.50;;;12.70;69.30;;;;;;5006419;28;20244;-59
2023/12/30 04:56:37;;;;;;;2.17;1.50;;;12.70;69.80;;;;;;5003789;28;20217;-60
2023/12/30 04:59:03;;;;;;;2.80;1.87;;;12.80;69.10;;;;;;5005616;28;20265;-59
2023/12/30 05:01:31;;;;;;;1.90;1.30;;;12.80;68.80;;;;;;5007468;28;20182;-61
2023/12/30 05:03:57;;;;;;;1.50;1.37;;;12.90;68.50;;;;;;5010576;28;21087;-61
2023/12/30 05:06:23;;;;;;;1.87;1.47;;;13.00;68.50;;;;;;5004331;28;20453;-60
2023/12/30 05:08:50;;;;;;;3.83;1.60;;;13.00;68.00;;;;;;5006695;28;20476;-58
2023/12/30 05:11:16;;;;;;;1.47;1.37;;;13.00;68.20;;;;;;5002874;28;20449;-60
2023/12/30 05:13:43;;;;;;;2.13;1.47;;;13.00;67.80;;;;;;5001378;28;20491;-61
2023/12/30 05:16:08;;;;;;;1.33;1.23;;;13.00;67.60;;;;;;5007426;28;20233;-61
2023/12/30 05:18:34;;;;;;;2.27;1.50;;;13.10;66.90;;;;;;5001344;28;20432;-61
2023/12/30 05:21:00;;;;;;;1.70;1.50;;;13.00;67.10;;;;;;5006618;28;20194;-60
2023/12/30 05:23:25;;;;;;;1.43;1.33;;;13.00;67.00;;;;;;5006059;28;20598;-59
2023/12/30 05:25:51;;;;;;;1.90;1.30;;;13.10;66.70;;;;;;5006452;28;20210;-60
2023/12/30 05:28:16;;;;;;;2.03;1.60;;;13.30;66.50;;;;;;5007648;28;20210;-60
2023/12/30 05:30:42;;;;;;;1.40;1.23;;;13.30;66.20;;;;;;5005523;28;20254;-60
2023/12/30 05:33:08;;;;;;;1.60;1.50;;;13.10;65.90;;;;;;5010439;28;20194;-59
2023/12/30 05:35:35;;;;;;;1.90;1.47;;;13.20;65.60;;;;;;5007122;28;20234;-60
2023/12/30 05:38:01;;;;;;;1.47;1.27;;;12.90;66.20;;;;;;5006797;28;20222;-61
2023/12/30 05:40:27;;;;;;;2.30;1.20;;;12.70;66.70;;;;;;5002616;28;20482;-58
2023/12/30 05:42:52;;;;;;;1.40;1.30;;;12.80;67.80;;;;;;5006774;28;20182;-61
2023/12/30 05:45:18;;;;;;;2.40;1.33;;;12.70;67.60;;;;;;5005778;28;20213;-60
2023/12/30 05:47:43;;;;;;;2.50;1.20;;;12.70;67.70;;;;;;5000354;28;20225;-60
2023/12/30 05:50:11;;;;;;;1.90;1.30;;;12.60;68.30;;;;;;5006433;28;20190;-61
2023/12/30 05:52:37;;;;;;;3.33;1.63;;;12.70;68.20;;;;;;5004705;28;20192;-60
2023/12/30 05:55:03;;;;;;;1.23;1.10;;;12.50;68.30;;;;;;5004010;28;20441;-61
2023/12/30 05:57:28;;;;;;;1.90;1.40;;;12.50;68.70;;;;;;5003532;28;20190;-59
2023/12/30 05:59:54;;;;;;;1.63;1.07;;;12.50;69.00;;;;;;5005232;28;20634;-60
2023/12/30 06:02:21;;;;;;;1.33;0.90;;;12.50;68.90;;;;;;5004361;28;20732;-59
2023/12/30 06:04:46;;;;;;;4.30;1.20;;;12.50;68.90;;;;;;5002165;28;20197;-59
2023/12/30 06:07:12;;;;;;;3.00;1.00;;;12.60;68.90;;;;;;5003251;28;20482;-60
2023/12/30 06:09:39;;;;;;;1.43;1.20;;;12.50;69.30;;;;;;5004277;28;20252;-59
2023/12/30 06:12:05;;;;;;;2.50;1.03;;;12.40;69.40;;;;;;5001739;28;20941;-60
2023/12/30 06:14:30;;;;;;;2.23;1.20;;;12.50;69.40;;;;;;5003333;28;20209;-61
2023/12/30 06:16:56;;;;;;;1.20;1.10;;;12.50;69.40;;;;;;5001714;28;21168;-60
2023/12/30 06:19:21;;;;;;;4.07;1.47;;;12.50;69.50;;;;;;5006361;28;20264;-59
2023/12/30 06:21:47;;;;;;;1.77;1.10;;;12.50;69.80;;;;;;4996768;28;20209;-60
2023/12/30 06:24:12;;;;;;;2.43;1.17;;;12.60;69.40;;;;;;5004031;28;20205;-59
2023/12/30 06:26:39;;;;;;;1.67;0.90;;;12.40;69.80;;;;;;5003789;28;20292;-59
2023/12/30 06:29:07;;;;;;;1.00;0.90;;;12.50;69.70;;;;;;5005184;28;20179;-61
2023/12/30 06:31:33;;;;;;;5.80;1.00;;;12.60;69.80;;;;;;5004065;28;20447;-60
2023/12/30 06:33:59;;;;;;;1.90;1.37;;;12.80;69.60;;;;;;5001386;28;20491;-60
2023/12/30 06:36:24;;;;;;;2.00;1.07;;;12.70;69.00;;;;;;5006330;28;20975;-59
2023/12/30 06:38:50;;;;;;;1.20;1.10;;;13.00;68.50;;;;;;5004088;28;20726;-60
2023/12/30 06:41:19;;;;;;;0.80;0.80;;;13.00;68.20;;;;;;5003644;28;20233;-60
2023/12/30 06:43:45;;;;;;;1.33;1.20;;;13.10;68.10;;;;;;5002002;28;20444;-61
2023/12/30 06:46:11;;;;;;;0.90;0.90;;;13.00;68.50;;;;;;5000090;28;21208;-61
2023/12/30 06:48:37;;;;;;;1.17;1.00;;;12.90;69.20;;;;;;5004192;28;20598;-59
2023/12/30 06:51:02;;;;;;;1.13;1.03;;;12.90;69.30;;;;;;5004357;28;20725;-59
2023/12/30 06:53:31;;;;;;;1.23;0.80;;;13.00;69.10;;;;;;5002896;28;20182;-59
2023/12/30 06:56:01;;;;;;;1.17;1.07;;;13.00;68.90;;;;;;4998716;28;20198;-60
2023/12/30 06:58:27;;;;;;;1.33;0.90;;;13.10;68.80;;;;;;5003676;28;20448;-60
2023/12/30 07:00:53;;;;;;;1.47;1.10;;;13.00;69.10;;;;;;4999055;28;20446;-60
2023/12/30 07:03:19;;;;;;;3.30;0.90;;;13.00;69.50;;;;;;4998537;28;20460;-59
2023/12/30 07:05:44;;;;;;;1.20;0.97;;;13.00;69.10;;;;;;5001724;28;20209;-60
2023/12/30 07:08:10;;;;;;;0.73;0.73;;;13.00;69.20;;;;;;4998614;28;20206;-61
2023/12/30 07:10:35;;;;;;;1.00;1.00;;;13.20;68.90;;;;;;5008812;28;20281;-60
2023/12/30 07:13:01;;;;;;;3.13;1.10;;;13.30;68.40;;;;;;5000926;28;20209;-60
2023/12/30 07:15:27;;;;;;;1.10;1.00;;;13.40;68.60;;;;;;4995756;28;20313;-60
2023/12/30 07:17:54;;;;;;;1.40;0.93;;;13.40;67.50;;;;;;5002465;28;20520;-59
2023/12/30 07:20:21;;;;;;;2.20;1.40;;;13.30;67.60;;;;;;5005088;28;20182;-60
2023/12/30 07:22:46;;;;;;;1.30;1.20;;;13.30;67.60;;;;;;5006930;28;20447;-61
2023/12/30 07:25:12;;;;;;;1.37;1.17;;;13.00;68.10;;;;;;4999026;28;20428;-61
2023/12/30 07:27:38;;;;;;;1.97;1.50;;;13.10;68.30;;;;;;5002612;28;20268;-61
2023/12/30 07:30:04;;;;;;;2.20;1.20;;;13.20;69.20;;;;;;4998107;28;20540;-60
2023/12/30 07:32:30;;;;;;;1.30;1.20;;;13.30;67.90;;;;;;5000932;28;20194;-60
2023/12/30 07:34:56;;;;;;;1.73;1.27;;;13.50;67.30;;;;;;5006654;28;21009;-61
2023/12/30 07:37:21;;;;;;;1.50;1.10;;;13.60;66.90;;;;;;4999778;28;20189;-60
2023/12/30 07:39:49;;;;;;;1.67;1.43;;;13.60;66.60;;;;;;4995649;28;20206;-61
2023/12/30 07:42:16;;;;;;;2.10;1.10;;;13.70;66.10;;;;;;4993968;28;20210;-60
2023/12/30 07:44:41;;;;;;;1.57;1.10;;;13.60;66.20;;;;;;4997175;28;20952;-60
2023/12/30 07:47:07;;;;;;;1.40;1.20;;;13.80;65.90;;;;;;5005634;28;20576;-61
2023/12/30 07:49:33;;;;;;;4.50;1.27;;;13.90;65.40;;;;;;5004486;28;20225;-60
2023/12/30 07:52:00;;;;;;;3.07;1.27;;;14.10;65.20;;;;;;4996231;28;20658;-60
2023/12/30 07:54:26;;;;;;;4.83;1.57;;;14.00;64.80;;;;;;5004396;28;20468;-60
2023/12/30 07:56:52;;;;;;;1.60;1.50;;;14.10;64.90;;;;;;5001413;28;20511;-61
2023/12/30 07:59:17;;;;;;;2.17;1.50;;;14.00;65.90;;;;;;4998535;28;20421;-60
2023/12/30 08:01:46;;;;;;;4.40;2.50;;;14.10;64.90;;;;;;4994282;28;20252;-61
2023/12/30 08:04:13;;;;;;;3.27;2.97;;;14.00;65.10;;;;;;4996079;28;20198;-61
2023/12/30 08:06:40;;;;;;;4.93;2.70;;;14.00;65.30;;;;;;4999216;28;20545;-60
2023/12/30 08:09:06;;;;;;;7.20;3.40;;;14.20;65.10;;;;;;5006739;28;20421;-60
2023/12/30 08:11:34;;;;;;;4.70;3.23;;;14.10;65.50;;;;;;5008027;28;20425;-62
2023/12/30 08:13:59;;;;;;;2.83;2.37;;;14.20;65.00;;;;;;4999939;28;20389;-61
2023/12/30 08:16:25;;;;;;;3.17;1.90;;;14.20;64.80;;;;;;4998847;28;21031;-61
2023/12/30 08:18:50;;;;;;;2.63;2.07;;;14.00;65.30;;;;;;4997956;28;20680;-61
2023/12/30 08:21:16;;;;;;;4.63;2.80;;;13.90;65.50;;;;;;5004019;28;20638;-60
2023/12/30 08:23:41;;;;;;;2.10;1.70;;;13.80;66.70;;;;;;5006057;28;20182;-60
2023/12/30 08:26:07;;;;;;;2.53;1.90;;;13.80;66.30;;;;;;4996600;28;20217;-60
2023/12/30 08:28:32;;;;;;;3.60;1.67;;;13.80;66.40;;;;;;4998349;28;20261;-60
2023/12/30 08:30:59;;;;;;;1.60;1.33;;;13.80;66.10;;;;;;4994193;28;20205;-60
2023/12/30 08:33:25;;;;;;;3.00;1.60;;;13.90;66.10;;;;;;4993661;28;20191;-59
2023/12/30 08:35:51;;;;;;;1.97;1.40;;;14.10;65.70;;;;;;4993087;28;20477;-60
2023/12/30 08:38:16;;;;;;;2.33;1.63;;;13.90;65.70;;;;;;5001408;28;20433;-61
2023/12/30 08:40:43;;;;;;;1.87;1.67;;;14.10;65.60;;;;;;4998195;28;20277;-60
2023/12/30 08:43:08;;;;;;;2.93;1.37;;;14.10;65.50;;;;;;4997679;28;20228;-60
2023/12/30 08:45:34;;;;;;;1.47;1.37;;;13.90;65.70;;;;;;5000189;28;20485;-59
2023/12/30 08:48:00;;;;;;;1.40;1.30;;;13.90;65.90;;;;;;5000768;28;20218;-59
2023/12/30 08:50:26;;;;;;;1.57;1.47;;;13.80;66.20;;;;;;5003822;28;20441;-60
2023/12/30 08:52:51;;;;;;;1.80;1.30;;;13.70;66.30;;;;;;5004287;28;20190;-58
2023/12/30 08:55:17;;;;;;;1.60;1.50;;;13.60;66.60;;;;;;5003078;28;20245;-60
2023/12/30 08:57:43;;;;;;;1.50;1.40;;;13.60;66.40;;;;;;5000461;28;20186;-59
2023/12/30 09:00:09;;;;;;;2.03;1.10;;;13.70;66.60;;;;;;4997300;28;20186;-60
2023/12/30 09:02:35;;;;;;;2.20;1.20;;;13.80;66.10;;;;;;4999054;28;20199;-60
2023/12/30 09:05:02;;;;;;;1.33;1.23;;;13.90;65.90;;;;;;4996117;28;20464;-60
2023/12/30 09:07:29;;;;;;;1.30;1.20;;;13.90;65.50;;;;;;4997343;28;20593;-60
2023/12/30 09:09:55;;;;;;;1.53;1.43;;;13.80;66.00;;;;;;5004098;28;20425;-60
2023/12/30 09:12:21;;;;;;;1.40;1.30;;;13.90;66.20;;;;;;5003959;28;20483;-61
2023/12/30 09:14:47;;;;;;;1.27;1.17;;;14.10;65.80;;;;;;4997835;28;20952;-61
2023/12/30 09:17:18;;;;;;;3.53;1.60;;;14.20;65.30;;;;;;5000240;28;20833;-59
2023/12/30 09:19:44;;;;;;;2.10;1.80;;;14.10;65.40;;;;;;5005561;28;20568;-62
2023/12/30 09:22:12;;;;;;;1.67;1.57;;;14.20;64.80;;;;;;4996631;28;20458;-60
2023/12/30 09:24:37;;;;;;;1.37;1.27;;;14.00;65.40;;;;;;4998159;28;20580;-62
2023/12/30 09:27:03;;;;;;;1.83;1.40;;;14.30;65.30;;;;;;4996532;28;20572;-60
2023/12/30 09:29:29;;;;;;;3.90;1.60;;;14.50;64.90;;;;;;4998560;28;20243;-60
2023/12/30 09:31:54;;;;;;;1.43;1.30;;;14.70;64.30;;;;;;4995572;28;20437;-60
2023/12/30 09:34:20;;;;;;;2.80;1.40;;;14.80;64.00;;;;;;4999860;28;20221;-61
2023/12/30 09:36:46;;;;;;;3.43;1.40;;;14.80;64.00;;;;;;5001799;28;20288;-61
2023/12/30 09:39:11;;;;;;;3.23;1.40;;;14.70;64.60;;;;;;5005163;28;20791;-61
2023/12/30 09:41:40;;;;;;;3.53;1.77;;;14.80;64.60;;;;;;5005618;28;20201;-61
2023/12/30 09:44:07;;;;;;;3.20;1.73;;;15.00;64.40;;;;;;5005893;28;20247;-61
2023/12/30 09:46:35;;;;;;;2.60;1.53;;;15.20;64.30;;;;;;4999771;28;20468;-61
2023/12/30 09:49:06;;;;;;;1.60;1.50;;;15.20;63.20;;;;;;5004541;28;20504;-60
2023/12/30 09:51:33;;;;;;;2.00;1.90;;;15.10;63.40;;;;;;5003657;28;20515;-59
2023/12/30 09:53:59;;;;;;;1.87;1.50;;;15.20;63.50;;;;;;5004986;28;20870;-61
2023/12/30 09:56:26;;;;;;;3.60;1.53;;;15.30;63.40;;;;;;5000500;28;20820;-60
2023/12/30 09:58:53;;;;;;;1.87;1.60;;;15.40;63.00;;;;;;4998078;28;20432;-61
2023/12/30 10:01:20;;;;;;;1.40;1.30;;;15.20;61.30;;;;;;5003515;28;20445;-62
2023/12/30 10:03:46;;;;;;;1.50;1.40;;;15.10;61.40;;;;;;5002370;28;20453;-61
2023/12/30 10:06:14;;;;;;;3.33;1.20;;;14.90;60.90;;;;;;4997337;28;20437;-61
2023/12/30 10:08:42;;;;;;;1.40;1.20;;;15.00;61.40;;;;;;5009291;28;20563;-61
2023/12/30 10:11:09;;;;;;;1.20;1.10;;;15.30;61.40;;;;;;5009644;28;20453;-61
2023/12/30 10:13:38;;;;;;;1.27;1.17;;;15.70;60.10;;;;;;5006945;28;22129;-60
2023/12/30 10:16:05;;;;;;;3.73;1.30;;;15.80;58.40;;;;;;4998878;28;20469;-61
2023/12/30 10:18:40;;;;;;;1.80;1.30;;;16.10;57.90;;;;;;4997542;28;20444;-61
2023/12/30 10:21:07;;;;;;;2.03;1.30;;;16.60;56.70;;;;;;4997477;28;20448;-62
2023/12/30 10:23:35;;;;;;;1.10;0.93;;;16.90;55.20;;;;;;5004765;28;20535;-61
2023/12/30 10:26:02;;;;;;;1.10;1.00;;;17.10;54.20;;;;;;5002408;28;20492;-61
2023/12/30 10:28:28;;;;;;;2.17;1.30;;;17.30;52.60;;;;;;5005892;28;20531;-59
2023/12/30 10:31:05;;;;;;;3.90;0.97;;;17.20;52.50;;;;;;5006921;28;20959;-60
2023/12/30 10:33:32;;;;;;;1.70;1.00;;;16.80;50.00;;;;;;5000115;28;20245;-61
2023/12/30 10:35:58;;;;;;;0.83;0.83;;;16.60;51.00;;;;;;4999525;28;20448;-60
2023/12/30 10:38:25;;;;;;;1.40;1.00;;;16.80;51.30;;;;;;5005887;28;20983;-61
2023/12/30 10:40:53;;;;;;;0.80;0.80;;;17.00;51.00;;;;;;5005191;28;20217;-61
2023/12/30 10:43:19;;;;;;;2.93;0.80;;;17.00;49.80;;;;;;5008720;28;20433;-61
2023/12/30 10:46:00;;;;;;;1.10;0.90;;;16.80;49.70;;;;;;5006299;28;20973;-61
2023/12/30 10:48:33;;;;;;;1.73;1.00;;;16.70;50.30;;;;;;5006810;28;20877;-61
2023/12/30 10:51:02;;;;;;;1.63;0.90;;;16.80;49.90;;;;;;5004410;28;20437;-61
2023/12/30 10:53:38;;;;;;;1.30;1.00;;;17.00;49.80;;;;;;5005530;28;20730;-60
2023/12/30 10:56:06;;;;;;;1.67;1.23;;;17.30;50.00;;;;;;5001294;28;20441;-59
2023/12/30 10:58:36;;;;;;;1.30;1.00;;;17.30;48.80;;;;;;5005671;28;20440;-61
2023/12/30 11:01:04;;;;;;;1.00;0.90;;;16.90;48.70;;;;;;5002680;28;20413;-61
2023/12/30 11:03:31;;;;;;;2.37;1.53;;;16.50;48.60;;;;;;5005666;28;20444;-61
2023/12/30 11:06:14;;;;;;;2.00;1.10;;;16.30;48.70;;;;;;5008769;28;20441;-60
2023/12/30 11:08:43;;;;;;;0.90;0.90;;;16.40;48.90;;;;;;5003090;28;20870;-59
2023/12/30 11:11:14;;;;;;;1.67;1.27;;;16.90;49.10;;;;;;5008120;28;20448;-61
2023/12/30 11:13:44;;;;;;;1.20;1.00;;;17.20;48.60;;;;;;5005363;28;20430;-60
2023/12/30 11:16:19;;;;;;;0.93;0.83;;;17.60;46.90;;;;;;5003603;28;20552;-60
2023/12/30 11:18:50;;;;;;;1.43;0.90;;;17.70;46.10;;;;;;5003895;28;20452;-61
2023/12/30 11:21:35;;;;;;;1.60;0.80;;;17.80;46.40;;;;;;5006315;28;20479;-61
2023/12/30 11:24:01;;;;;;;1.20;0.87;;;17.90;45.80;;;;;;4999095;28;20457;-60
2023/12/30 11:26:29;;;;;;;1.90;1.10;;;17.70;45.70;;;;;;4997988;28;20485;-61
2023/12/30 11:28:57;;;;;;;3.67;0.80;;;17.60;45.80;;;;;;5008653;28;20940;-61
2023/12/30 11:31:36;;;;;;;0.87;0.80;;;17.20;45.00;;;;;;5005324;28;20433;-58
2023/12/30 11:34:02;;;;;;;1.33;0.80;;;16.90;46.30;;;;;;5003025;28;20478;-60
2023/12/30 11:36:28;;;;;;;1.30;0.77;;;16.60;46.20;;;;;;5005509;28;20472;-59
2023/12/30 11:38:55;;;;;;;0.60;0.60;;;16.50;46.80;;;;;;4993807;28;21075;-60
2023/12/30 11:41:22;;;;;;;1.30;0.70;;;16.30;46.90;;;;;;5006015;28;20483;-60
2023/12/30 11:43:48;;;;;;;0.80;0.80;;;16.30;47.30;;;;;;5008369;28;21076;-59
2023/12/30 11:46:14;;;;;;;1.07;0.67;;;16.20;46.60;;;;;;5003072;28;20603;-60
2023/12/30 11:48:43;;;;;;;3.33;0.70;;;16.20;47.20;;;;;;5002098;28;20503;-60
2023/12/30 11:51:09;;;;;;;0.83;0.83;;;16.30;47.10;;;;;;5004609;28;20182;-60
2023/12/30 11:53:35;;;;;;;2.33;0.80;;;16.00;47.20;;;;;;5006437;28;20428;-59
2023/12/30 11:56:01;;;;;;;1.57;0.90;;;15.90;47.90;;;;;;5000725;28;20202;-60
2023/12/30 11:58:29;;;;;;;1.03;0.73;;;15.50;48.20;;;;;;5006870;28;20217;-59
2023/12/30 12:00:55;;;;;;;1.00;0.90;;;15.50;49.10;;;;;;5004458;28;20443;-61
2023/12/30 12:03:20;;;;;;;1.70;0.87;;;15.90;49.70;;;;;;5000284;28;20458;-60
2023/12/30 12:05:46;;;;;;;1.17;0.90;;;16.00;49.00;;;;;;5001217;28;20214;-59
2023/12/30 12:08:12;;;;;;;0.90;0.80;;;15.90;49.10;;;;;;5006617;28;20226;-59
2023/12/30 12:10:37;;;;;;;1.03;0.83;;;15.90;49.10;;;;;;5005705;28;20403;-59
2023/12/30 12:13:05;;;;;;;0.90;0.70;;;15.90;49.30;;;;;;5004597;28;20190;-60
2023/12/30 12:15:32;;;;;;;3.53;0.90;;;15.90;49.60;;;;;;5004027;28;20218;-60
2023/12/30 12:17:58;;;;;;;1.73;1.13;;;16.10;49.30;;;;;;5002506;28;20448;-60
2023/12/30 12:20:26;;;;;;;2.20;1.00;;;16.20;49.20;;;;;;5005751;28;20441;-59
2023/12/30 12:22:54;;;;;;;0.83;0.83;;;16.00;49.70;;;;;;5002302;28;20247;-59
2023/12/30 12:25:23;;;;;;;2.20;1.00;;;15.90;49.50;;;;;;5004302;28;20534;-59
2023/12/30 12:27:49;;;;;;;1.20;0.83;;;15.90;49.80;;;;;;5004569;28;20476;-60
2023/12/30 12:30:16;;;;;;;0.90;0.70;;;16.00;49.80;;;;;;5003158;28;20960;-59
2023/12/30 12:32:41;;;;;;;3.40;0.80;;;16.20;49.70;;;;;;5005432;28;20628;-60
2023/12/30 12:35:07;;;;;;;1.57;0.97;;;16.00;49.30;;;;;;5004894;28;20610;-60
2023/12/30 12:37:33;;;;;;;0.90;0.90;;;16.20;49.90;;;;;;5006270;28;20194;-60
2023/12/30 12:39:58;;;;;;;2.20;1.30;;;16.30;49.80;;;;;;5004587;28;20186;-60
2023/12/30 12:42:25;;;;;;;1.97;1.10;;;16.40;49.60;;;;;;5002681;28;20699;-59
2023/12/30 12:44:51;;;;;;;3.43;1.03;;;16.50;49.70;;;;;;4996991;28;20182;-60